createdAt,value
2022-11-03T00:00:23.050Z,98673.00
2022-11-03T00:05:44.485Z,98669.00
2022-11-03T00:10:47.294Z,98667.00
2022-11-03T00:15:53.470Z,98659.00
2022-11-03T00:20:57.766Z,98665.00
2022-11-03T00:26:21.528Z,98675.00
2022-11-03T00:31:30.091Z,98665.00
2022-11-03T00:36:36.438Z,98659.00
2022-11-03T00:41:39.394Z,98645.00
2022-11-03T00:46:42.188Z,98659.00
2022-11-03T00:51:44.891Z,98653.00
2022-11-03T00:56:47.591Z,98651.00
2022-11-03T01:01:50.460Z,98652.00
2022-11-03T01:06:55.637Z,98648.00
2022-11-03T01:12:16.278Z,98641.00
2022-11-03T01:17:21.821Z,98638.00
2022-11-03T01:22:24.997Z,98637.00
2022-11-03T01:27:28.206Z,98638.00
2022-11-03T01:32:30.982Z,98619.00
2022-11-03T01:37:33.738Z,98617.00
2022-11-03T01:42:36.545Z,98624.00
2022-11-03T01:47:39.556Z,98605.00
2022-11-03T01:52:57.193Z,98598.00
2022-11-03T01:58:05.953Z,98580.00
2022-11-03T02:03:09.059Z,98563.00
2022-11-03T02:08:40.964Z,98569.00
2022-11-03T02:13:43.694Z,98552.00
2022-11-03T02:18:47.021Z,98540.00
2022-11-03T02:24:24.517Z,98540.00
2022-11-03T02:29:27.372Z,98534.00
2022-11-03T02:35:05.545Z,98526.00
2022-11-03T02:40:15.663Z,98522.00
2022-11-03T02:45:21.465Z,98512.00
2022-11-03T02:50:31.733Z,98492.00
2022-11-03T02:56:03.666Z,98494.00
2022-11-03T03:01:16.388Z,98495.00
2022-11-03T03:06:44.740Z,98477.00
2022-11-03T03:11:51.388Z,98492.00
2022-11-03T03:17:05.397Z,98477.00
2022-11-03T03:22:21.827Z,98476.00
2022-11-03T03:27:28.114Z,98457.00
2022-11-03T03:32:35.756Z,98457.00
2022-11-03T03:37:42.734Z,98449.00
2022-11-03T03:42:48.620Z,98441.00
2022-11-03T03:47:56.401Z,98447.00
2022-11-03T03:53:06.030Z,98442.00
2022-11-03T03:58:11.907Z,98432.00
2022-11-03T04:03:20.554Z,98432.00
2022-11-03T04:08:23.289Z,98431.00
2022-11-03T04:13:44.474Z,98415.00
2022-11-03T04:19:06.004Z,98415.00
2022-11-03T04:24:08.771Z,98409.00
2022-11-03T04:29:12.168Z,98394.00
2022-11-03T04:34:14.878Z,98389.00
2022-11-03T04:39:20.184Z,98385.00
2022-11-03T04:44:23.027Z,98388.00
2022-11-03T04:49:25.870Z,98388.00
2022-11-03T04:54:28.988Z,98366.00
2022-11-03T04:59:31.711Z,98377.00
2022-11-03T05:04:34.527Z,98373.00
2022-11-03T05:09:40.336Z,98370.00
2022-11-03T05:14:45.953Z,98355.00
2022-11-03T05:19:49.316Z,98350.00
2022-11-03T05:25:02.500Z,98348.00
2022-11-03T05:30:07.178Z,98351.00
2022-11-03T05:35:22.316Z,98345.00
2022-11-03T05:40:27.046Z,98339.00
2022-11-03T05:45:35.151Z,98336.00
2022-11-03T05:50:40.752Z,98329.00
2022-11-03T05:55:43.912Z,98324.00
2022-11-03T06:00:48.735Z,98306.00
2022-11-03T06:05:52.345Z,98308.00
2022-11-03T06:10:57.435Z,98308.00
2022-11-03T06:16:40.356Z,98318.00
2022-11-03T06:21:44.901Z,98316.00
2022-11-03T06:26:48.946Z,98315.00
2022-11-03T06:31:56.173Z,98319.00
2022-11-03T06:37:02.755Z,98303.00
2022-11-03T06:42:16.494Z,98295.00
2022-11-03T06:47:25.639Z,98295.00
2022-11-03T06:52:32.577Z,98292.00
2022-11-03T06:57:39.539Z,98303.00
2022-11-03T07:03:06.612Z,98287.00
2022-11-03T07:08:37.283Z,98294.00
2022-11-03T07:13:40.249Z,98274.00
2022-11-03T07:18:45.125Z,98285.00
2022-11-03T07:23:47.863Z,98287.00
2022-11-03T07:28:50.999Z,98283.00
2022-11-03T07:33:58.893Z,98257.00
2022-11-03T07:39:03.316Z,98266.00
2022-11-03T07:44:10.858Z,98260.00
2022-11-03T07:49:40.281Z,98251.00
2022-11-03T07:54:43.213Z,98235.00
2022-11-03T08:00:11.381Z,98229.00
2022-11-03T08:05:17.251Z,98233.00
2022-11-03T08:10:21.636Z,98220.00
2022-11-03T08:15:24.473Z,98216.00
2022-11-03T08:20:27.209Z,98208.00
2022-11-03T08:25:30.013Z,98204.00
2022-11-03T08:30:34.204Z,98196.00
2022-11-03T08:35:37.041Z,98189.00
2022-11-03T08:40:39.799Z,98189.00
2022-11-03T08:45:42.653Z,98175.00
2022-11-03T08:50:45.399Z,98162.00
2022-11-03T08:55:48.208Z,98160.00
2022-11-03T09:00:51.102Z,98153.00
2022-11-03T09:05:53.855Z,98148.00
2022-11-03T09:10:56.613Z,98130.00
2022-11-03T09:15:59.414Z,98141.00
2022-11-03T09:21:02.261Z,98142.00
2022-11-03T09:26:06.905Z,98130.00
2022-11-03T09:31:09.714Z,98124.00
2022-11-03T09:36:12.505Z,98119.00
2022-11-03T09:41:28.171Z,98106.00
2022-11-03T09:46:38.321Z,98104.00
2022-11-03T09:51:41.558Z,98094.00
2022-11-03T09:56:47.247Z,98085.00
2022-11-03T10:01:54.193Z,98081.00
2022-11-03T10:06:58.734Z,98075.00
2022-11-03T10:12:01.515Z,98068.00
2022-11-03T10:17:04.496Z,98066.00
2022-11-03T10:22:08.177Z,98050.00
2022-11-03T10:27:28.070Z,98035.00
2022-11-03T10:32:34.375Z,98026.00
2022-11-03T10:37:39.109Z,98012.00
2022-11-03T10:42:57.781Z,98016.00
2022-11-03T10:48:08.316Z,97998.00
2022-11-03T10:53:18.763Z,97986.00
2022-11-03T10:58:21.917Z,97975.00
2022-11-03T11:03:24.695Z,97958.00
2022-11-03T11:08:27.458Z,97950.00
2022-11-03T11:13:31.256Z,97942.00
2022-11-03T11:18:34.091Z,97940.00
2022-11-03T11:23:36.848Z,97939.00
2022-11-03T11:28:45.070Z,97931.00
2022-11-03T11:33:47.940Z,97923.00
2022-11-03T11:38:55.551Z,97913.00
2022-11-03T11:44:37.066Z,97896.00
2022-11-03T11:49:39.834Z,97885.00
2022-11-03T11:54:43.607Z,97882.00
2022-11-03T11:59:49.260Z,97875.00
2022-11-03T12:05:04.980Z,97877.00
2022-11-03T12:10:18.241Z,97871.00
2022-11-03T12:15:52.419Z,97867.00
2022-11-03T12:20:55.194Z,97854.00
2022-11-03T12:25:58.052Z,97846.00
2022-11-03T12:36:03.738Z,97830.00
2022-11-03T12:41:21.370Z,97816.00
2022-11-03T12:46:24.152Z,97803.00
2022-11-03T12:51:26.898Z,97790.00
2022-11-03T12:56:29.574Z,97766.00
2022-11-03T13:01:33.388Z,97759.00
2022-11-03T13:06:36.291Z,97741.00
2022-11-03T13:11:57.672Z,97724.00
2022-11-03T13:17:00.598Z,97721.00
2022-11-03T13:22:03.855Z,97704.00
2022-11-03T13:27:06.594Z,97695.00
2022-11-03T13:32:10.685Z,97692.00
2022-11-03T13:37:13.354Z,97693.00
2022-11-03T13:42:16.111Z,97685.00
2022-11-03T13:48:15.560Z,97679.00
2022-11-03T14:09:25.205Z,97643.00
2022-11-03T14:14:28.100Z,97633.00
2022-11-03T14:19:38.119Z,97632.00
2022-11-03T14:24:44.673Z,97617.00
2022-11-03T14:29:50.646Z,97609.00
2022-11-03T14:34:53.384Z,97612.00
2022-11-03T14:39:56.152Z,97607.00
2022-11-03T14:44:58.932Z,97596.00
2022-11-03T14:50:01.856Z,97576.00
2022-11-03T14:55:04.979Z,97576.00
2022-11-03T15:00:11.239Z,97563.00
2022-11-03T15:05:34.037Z,97555.00
2022-11-03T15:10:36.786Z,97548.00
2022-11-03T15:15:41.658Z,97542.00
2022-11-03T15:20:44.487Z,97539.00
2022-11-03T15:25:47.243Z,97535.00
2022-11-03T15:30:50.272Z,97532.00
2022-11-03T15:35:53.201Z,97531.00
2022-11-03T15:41:15.484Z,97519.00
2022-11-03T15:46:20.221Z,97525.00
2022-11-03T15:51:23.479Z,97498.00
2022-11-03T15:56:27.007Z,97505.00
2022-11-03T16:01:29.917Z,97497.00
2022-11-03T16:11:56.014Z,97486.00
2022-11-03T16:16:58.941Z,97475.00
2022-11-03T16:22:01.913Z,97466.00
2022-11-03T16:27:04.950Z,97465.00
2022-11-03T16:32:07.861Z,97442.00
2022-11-03T16:37:10.670Z,97434.00
2022-11-03T16:42:13.481Z,97416.00
2022-11-03T16:47:16.271Z,97423.00
2022-11-03T16:52:18.999Z,97421.00
2022-11-03T16:57:21.808Z,97407.00
2022-11-03T17:02:24.862Z,97408.00
2022-11-03T17:07:27.620Z,97392.00
2022-11-03T17:12:30.401Z,97391.00
2022-11-03T17:17:33.250Z,97376.00
2022-11-03T17:22:36.103Z,97382.00
2022-11-03T17:27:52.167Z,97363.00
2022-11-03T17:33:01.421Z,97366.00
2022-11-03T17:38:07.206Z,97361.00
2022-11-03T17:43:25.735Z,97344.00
2022-11-03T17:48:28.503Z,97350.00
2022-11-03T17:53:33.616Z,97323.00
2022-11-03T17:58:44.894Z,97312.00
2022-11-03T18:03:49.329Z,97303.00
2022-11-03T18:08:52.115Z,97298.00
2022-11-03T18:13:54.915Z,97291.00
2022-11-03T18:18:58.129Z,97273.00
2022-11-03T18:24:00.993Z,97275.00
2022-11-03T18:29:03.802Z,97248.00
2022-11-03T18:34:34.165Z,97241.00
2022-11-03T18:39:38.115Z,97221.00
2022-11-03T18:44:43.756Z,97216.00
2022-11-03T18:49:47.917Z,97219.00
2022-11-03T18:54:52.325Z,97216.00
2022-11-03T18:59:55.152Z,97200.00
2022-11-03T19:04:57.929Z,97203.00
2022-11-03T19:10:03.733Z,97169.00
2022-11-03T19:15:07.913Z,97165.00
2022-11-03T19:20:16.327Z,97157.00
2022-11-03T19:25:20.160Z,97146.00
2022-11-03T19:30:22.916Z,97138.00
2022-11-03T19:35:35.691Z,97114.00
2022-11-03T19:41:00.003Z,97117.00
2022-11-03T19:46:04.110Z,97115.00
2022-11-03T19:51:07.565Z,97105.00
2022-11-03T19:56:11.251Z,97121.00
2022-11-03T20:01:14.175Z,97099.00
2022-11-03T20:06:19.435Z,97103.00
2022-11-03T20:11:22.336Z,97097.00
2022-11-03T20:16:25.935Z,97091.00
2022-11-03T20:21:34.212Z,97087.00
2022-11-03T20:26:37.492Z,97081.00
2022-11-03T20:31:43.619Z,97083.00
2022-11-03T20:36:48.109Z,97078.00
2022-11-03T20:41:53.708Z,97066.00
2022-11-03T20:46:56.479Z,97057.00
2022-11-03T20:51:59.525Z,97046.00
2022-11-03T20:57:02.263Z,97040.00
2022-11-03T21:02:11.898Z,97037.00
2022-11-03T21:07:14.808Z,97037.00
2022-11-03T21:12:21.105Z,97034.00
2022-11-03T21:17:42.247Z,97036.00
2022-11-03T21:22:53.748Z,97030.00
2022-11-03T21:27:56.735Z,97032.00
2022-11-03T21:32:59.525Z,97028.00
2022-11-03T21:38:02.374Z,97023.00
2022-11-03T21:43:23.424Z,97015.00
2022-11-03T21:48:44.578Z,97021.00
2022-11-03T21:53:48.190Z,97007.00
2022-11-03T21:58:51.154Z,97002.00
2022-11-03T22:03:55.439Z,97002.00
2022-11-03T22:08:58.190Z,96984.00
2022-11-03T22:14:02.363Z,96983.00
2022-11-03T22:19:34.667Z,96981.00
2022-11-03T22:24:56.623Z,96976.00
2022-11-03T22:30:18.793Z,96980.00
2022-11-03T22:35:41.055Z,96962.00
2022-11-03T22:41:05.223Z,96954.00
2022-11-03T22:46:09.284Z,96946.00
2022-11-03T22:51:15.630Z,96938.00
2022-11-03T22:56:21.788Z,96939.00
2022-11-03T23:01:29.502Z,96926.00
2022-11-03T23:06:38.853Z,96926.00
2022-11-03T23:11:41.587Z,96923.00
2022-11-03T23:16:45.965Z,96911.00
2022-11-03T23:21:51.070Z,96917.00
2022-11-03T23:26:53.824Z,96908.00
2022-11-03T23:31:58.411Z,96904.00
2022-11-03T23:37:01.142Z,96906.00
2022-11-03T23:42:03.879Z,96903.00
2022-11-03T23:47:27.052Z,96901.00
2022-11-03T23:52:29.797Z,96894.00
2022-11-03T23:57:50.943Z,96894.00
